createdAt,value
2018-12-14T00:02:28.943Z,89.40
2018-12-14T00:05:00.352Z,88.90
2018-12-14T00:07:31.600Z,89.10
2018-12-14T00:10:00.777Z,89.00
2018-12-14T00:12:29.939Z,89.10
2018-12-14T00:14:59.087Z,89.10
2018-12-14T00:17:28.236Z,89.10
2018-12-14T00:19:57.383Z,89.40
2018-12-14T00:22:26.527Z,89.50
2018-12-14T00:24:55.593Z,89.50
2018-12-14T00:27:25.162Z,90.00
2018-12-14T00:29:54.764Z,90.30
2018-12-14T00:32:23.823Z,90.20
2018-12-14T00:34:53.098Z,90.10
2018-12-14T00:37:22.219Z,90.30
2018-12-14T00:39:51.408Z,90.40
2018-12-14T00:42:20.556Z,90.30
2018-12-14T00:44:49.732Z,90.30
2018-12-14T00:47:18.835Z,90.30
2018-12-14T00:49:47.985Z,90.30
2018-12-14T00:52:17.347Z,90.20
2018-12-14T00:54:46.442Z,90.30
2018-12-14T00:57:15.598Z,90.30
2018-12-14T00:59:45.831Z,90.40
2018-12-14T01:02:20.298Z,90.50
2018-12-14T01:04:49.431Z,90.50
2018-12-14T01:07:18.577Z,90.60
2018-12-14T01:09:47.919Z,90.60
2018-12-14T01:12:17.073Z,90.70
2018-12-14T01:14:46.234Z,90.80
2018-12-14T01:17:15.362Z,90.80
2018-12-14T01:19:44.531Z,90.80
2018-12-14T01:22:13.703Z,90.80
2018-12-14T01:24:42.847Z,90.80
2018-12-14T01:27:11.978Z,90.70
2018-12-14T01:29:41.131Z,90.90
2018-12-14T01:32:10.259Z,90.70
2018-12-14T01:34:39.395Z,90.70
2018-12-14T01:37:08.570Z,90.70
2018-12-14T01:39:37.782Z,90.80
2018-12-14T01:42:07.105Z,90.90
2018-12-14T01:44:36.408Z,91.00
2018-12-14T01:47:05.531Z,91.00
2018-12-14T01:49:34.687Z,91.20
2018-12-14T01:52:03.882Z,91.10
2018-12-14T01:54:33.016Z,91.10
2018-12-14T01:57:02.158Z,91.10
2018-12-14T01:59:31.324Z,91.00
2018-12-14T02:02:00.436Z,91.50
2018-12-14T02:04:29.632Z,91.10
2018-12-14T02:06:58.801Z,91.00
2018-12-14T02:09:27.942Z,91.10
2018-12-14T02:11:57.179Z,91.10
2018-12-14T02:14:26.318Z,91.20
2018-12-14T02:16:56.552Z,91.20
2018-12-14T02:19:25.969Z,91.10
2018-12-14T02:21:55.333Z,91.10
2018-12-14T02:24:24.459Z,91.30
2018-12-14T02:26:53.655Z,91.30
2018-12-14T02:29:22.791Z,91.40
2018-12-14T02:31:52.127Z,91.30
2018-12-14T02:34:21.250Z,91.30
2018-12-14T02:36:50.365Z,91.30
2018-12-14T02:39:19.516Z,91.20
2018-12-14T02:41:48.679Z,91.20
2018-12-14T02:44:17.844Z,91.30
2018-12-14T02:46:46.972Z,91.30
2018-12-14T02:49:16.121Z,91.30
2018-12-14T02:51:45.218Z,91.40
2018-12-14T02:54:14.373Z,91.50
2018-12-14T02:56:43.547Z,91.50
2018-12-14T02:59:12.687Z,91.80
2018-12-14T03:01:41.831Z,91.70
2018-12-14T03:04:10.893Z,91.80
2018-12-14T03:06:40.167Z,91.80
2018-12-14T03:09:09.338Z,91.80
2018-12-14T03:11:38.456Z,91.90
2018-12-14T03:14:07.814Z,91.90
2018-12-14T03:16:37.020Z,91.90
2018-12-14T03:19:06.191Z,91.90
2018-12-14T03:21:35.436Z,91.90
2018-12-14T03:24:04.510Z,91.90
2018-12-14T03:26:33.664Z,91.90
2018-12-14T03:29:02.936Z,92.00
2018-12-14T03:31:32.081Z,92.00
2018-12-14T03:34:01.200Z,92.00
2018-12-14T03:36:30.328Z,92.00
2018-12-14T03:38:59.754Z,92.00
2018-12-14T03:41:28.858Z,92.00
2018-12-14T03:43:58.219Z,91.80
2018-12-14T03:46:27.362Z,91.80
2018-12-14T03:48:56.559Z,91.90
2018-12-14T03:51:28.667Z,91.80
2018-12-14T03:53:58.693Z,91.60
2018-12-14T03:56:27.792Z,91.50
2018-12-14T03:58:56.957Z,91.50
2018-12-14T04:01:26.093Z,91.50
2018-12-14T04:03:55.241Z,91.50
2018-12-14T04:06:24.355Z,91.40
2018-12-14T04:08:55.491Z,91.30
2018-12-14T04:11:24.641Z,91.40
2018-12-14T04:13:53.876Z,91.20
2018-12-14T04:16:23.767Z,91.10
2018-12-14T04:18:52.931Z,91.00
2018-12-14T04:21:22.035Z,91.00
2018-12-14T04:23:51.199Z,91.00
2018-12-14T04:26:20.316Z,91.00
2018-12-14T04:35:36.840Z,90.70
2018-12-14T04:38:07.949Z,90.50
2018-12-14T04:40:37.066Z,90.60
2018-12-14T04:43:06.262Z,90.50
2018-12-14T04:45:35.440Z,90.70
2018-12-14T04:48:04.531Z,90.60
2018-12-14T04:50:33.647Z,90.50
2018-12-14T04:53:02.798Z,90.40
2018-12-14T04:55:31.918Z,90.40
2018-12-14T04:58:01.005Z,90.50
2018-12-14T05:00:30.133Z,90.40
2018-12-14T05:02:59.260Z,90.40
2018-12-14T05:05:28.415Z,90.40
2018-12-14T05:07:57.519Z,90.40
2018-12-14T05:10:26.783Z,90.30
2018-12-14T05:12:56.395Z,90.20
2018-12-14T05:15:25.677Z,90.10
2018-12-14T05:17:55.007Z,90.00
2018-12-14T05:20:24.125Z,90.10
2018-12-14T05:22:53.234Z,90.30
2018-12-14T05:25:22.333Z,90.30
2018-12-14T05:27:51.447Z,90.30
2018-12-14T05:30:20.663Z,90.30
2018-12-14T05:32:49.797Z,90.20
2018-12-14T05:35:18.965Z,90.30
2018-12-14T05:37:48.130Z,90.30
2018-12-14T05:40:17.225Z,90.60
2018-12-14T05:42:46.414Z,90.20
2018-12-14T05:45:15.569Z,90.20
2018-12-14T05:47:45.128Z,90.20
2018-12-14T05:50:14.276Z,90.40
2018-12-14T05:52:43.403Z,90.30
2018-12-14T05:55:12.535Z,90.30
2018-12-14T05:57:41.657Z,90.40
2018-12-14T06:00:12.533Z,90.50
2018-12-14T06:02:41.691Z,90.50
2018-12-14T06:05:10.999Z,90.60
2018-12-14T06:07:40.072Z,90.70
2018-12-14T06:10:09.345Z,90.60
2018-12-14T06:12:38.543Z,90.60
2018-12-14T06:15:07.997Z,90.70
2018-12-14T06:17:37.110Z,90.60
2018-12-14T06:20:07.575Z,90.70
2018-12-14T06:22:36.711Z,90.80
2018-12-14T06:25:06.092Z,90.80
2018-12-14T06:27:35.261Z,90.80
2018-12-14T06:30:05.231Z,90.80
2018-12-14T06:32:34.322Z,90.80
2018-12-14T06:35:03.626Z,91.10
2018-12-14T06:37:32.730Z,91.50
2018-12-14T06:40:01.871Z,91.80
2018-12-14T06:42:33.541Z,91.90
2018-12-14T06:45:02.858Z,91.90
2018-12-14T06:47:32.224Z,91.80
2018-12-14T06:50:01.354Z,91.90
2018-12-14T06:52:31.584Z,91.90
2018-12-14T06:55:00.758Z,92.00
2018-12-14T06:57:29.914Z,92.10
2018-12-14T06:59:59.070Z,92.10
2018-12-14T07:02:28.292Z,92.10
2018-12-14T07:04:57.518Z,92.20
2018-12-14T07:07:26.769Z,92.10
2018-12-14T07:09:56.076Z,92.00
2018-12-14T07:12:25.302Z,92.10
2018-12-14T07:14:54.948Z,92.20
2018-12-14T07:17:24.097Z,92.30
2018-12-14T07:19:53.304Z,92.40
2018-12-14T07:22:22.563Z,92.50
2018-12-14T07:24:52.137Z,92.50
2018-12-14T07:27:21.273Z,92.90
2018-12-14T07:29:50.442Z,92.60
2018-12-14T07:32:19.580Z,92.70
2018-12-14T07:34:48.983Z,92.80
2018-12-14T07:37:18.283Z,93.40
2018-12-14T07:39:47.434Z,93.10
2018-12-14T07:42:16.600Z,93.10
2018-12-14T07:44:45.867Z,93.20
2018-12-14T07:47:15.264Z,93.20
2018-12-14T07:49:44.450Z,93.40
2018-12-14T07:52:13.652Z,93.40
2018-12-14T07:54:42.844Z,93.70
2018-12-14T07:57:12.033Z,93.40
2018-12-14T07:59:41.158Z,93.40
2018-12-14T08:02:10.388Z,93.40
2018-12-14T08:04:39.948Z,93.40
2018-12-14T08:07:09.188Z,93.50
2018-12-14T08:09:38.376Z,93.30
2018-12-14T08:12:07.574Z,93.30
2018-12-14T08:14:36.973Z,93.30
2018-12-14T08:17:06.606Z,93.30
2018-12-14T08:19:35.855Z,93.50
2018-12-14T08:22:05.065Z,93.40
2018-12-14T08:24:34.411Z,93.40
2018-12-14T08:27:03.703Z,93.50
2018-12-14T08:29:32.948Z,93.50
2018-12-14T08:32:02.207Z,93.50
2018-12-14T08:34:31.486Z,93.40
2018-12-14T08:37:00.704Z,93.50
2018-12-14T08:39:29.948Z,93.60
2018-12-14T08:42:00.269Z,93.60
2018-12-14T08:44:29.424Z,93.70
2018-12-14T08:46:58.580Z,93.90
2018-12-14T08:49:27.795Z,93.90
2018-12-14T08:51:57.081Z,94.40
2018-12-14T08:54:26.249Z,94.00
2018-12-14T08:56:55.358Z,94.20
2018-12-14T08:59:24.570Z,94.20
2018-12-14T09:01:53.802Z,94.30
2018-12-14T09:04:22.997Z,94.30
2018-12-14T09:06:52.227Z,94.40
2018-12-14T09:09:21.452Z,94.70
2018-12-14T09:11:50.580Z,94.70
2018-12-14T09:14:19.740Z,95.00
2018-12-14T09:16:48.925Z,94.80
2018-12-14T09:19:19.092Z,95.00
2018-12-14T09:21:48.278Z,95.20
2018-12-14T09:24:17.880Z,95.40
2018-12-14T09:26:47.178Z,95.40
2018-12-14T09:29:16.601Z,95.40
2018-12-14T09:31:46.322Z,95.50
2018-12-14T09:34:15.561Z,95.60
2018-12-14T09:36:45.754Z,95.60
2018-12-14T09:39:14.984Z,95.40
2018-12-14T09:41:44.177Z,95.30
2018-12-14T09:44:13.351Z,95.40
2018-12-14T09:46:42.506Z,95.30
2018-12-14T09:49:11.811Z,95.30
2018-12-14T09:51:41.035Z,95.60
2018-12-14T09:55:39.619Z,95.50
2018-12-14T09:58:08.767Z,95.50
2018-12-14T10:00:37.969Z,95.10
2018-12-14T10:03:07.307Z,95.30
2018-12-14T10:05:36.483Z,95.30
2018-12-14T10:08:05.677Z,95.50
2018-12-14T10:10:34.983Z,95.50
2018-12-14T10:13:04.151Z,95.40
2018-12-14T10:15:33.292Z,95.30
2018-12-14T10:18:02.531Z,95.40
2018-12-14T10:20:31.841Z,95.40
2018-12-14T10:23:01.161Z,95.30
2018-12-14T10:25:30.356Z,95.30
2018-12-14T10:27:59.701Z,94.70
2018-12-14T10:30:28.860Z,94.60
2018-12-14T10:32:57.992Z,94.70
2018-12-14T10:35:27.125Z,94.80
2018-12-14T10:37:56.433Z,94.80
2018-12-14T10:40:25.630Z,94.70
2018-12-14T10:42:54.883Z,94.80
2018-12-14T10:45:25.476Z,94.40
2018-12-14T10:47:54.661Z,94.40
2018-12-14T10:50:23.891Z,94.10
2018-12-14T10:52:53.020Z,94.10
2018-12-14T10:55:22.107Z,94.30
2018-12-14T10:57:51.741Z,94.30
2018-12-14T11:00:26.269Z,94.10
2018-12-14T11:02:55.455Z,94.30
2018-12-14T11:05:24.641Z,94.30
2018-12-14T11:07:53.818Z,94.50
2018-12-14T11:10:22.978Z,94.50
2018-12-14T11:12:52.152Z,94.70
2018-12-14T11:15:21.323Z,94.90
2018-12-14T11:17:50.452Z,95.00
2018-12-14T11:20:19.648Z,95.20
2018-12-14T11:22:51.878Z,95.40
2018-12-14T11:25:21.062Z,96.00
2018-12-14T11:27:50.190Z,96.30
2018-12-14T11:30:19.467Z,96.80
2018-12-14T11:32:48.589Z,97.30
2018-12-14T11:35:17.786Z,97.30
2018-12-14T11:37:46.908Z,97.30
2018-12-14T11:40:16.082Z,96.90
2018-12-14T11:42:45.245Z,97.00
2018-12-14T11:45:14.476Z,97.40
2018-12-14T11:47:43.669Z,97.80
2018-12-14T11:50:13.032Z,98.00
2018-12-14T11:52:42.172Z,98.00
2018-12-14T11:55:11.525Z,97.70
2018-12-14T11:57:40.744Z,97.60
2018-12-14T12:00:14.127Z,97.60
2018-12-14T12:02:43.585Z,97.90
2018-12-14T12:05:13.156Z,97.60
2018-12-14T12:07:43.264Z,97.50
2018-12-14T12:10:12.461Z,96.60
2018-12-14T12:12:41.937Z,96.30
2018-12-14T12:15:11.162Z,96.30
2018-12-14T12:17:40.598Z,96.60
2018-12-14T12:20:09.865Z,96.50
2018-12-14T12:22:39.076Z,95.90
2018-12-14T12:25:08.409Z,95.90
2018-12-14T12:27:37.527Z,96.20
2018-12-14T12:30:08.065Z,96.20
2018-12-14T12:32:37.420Z,96.40
2018-12-14T12:35:08.026Z,96.20
2018-12-14T12:37:37.348Z,96.50
2018-12-14T12:40:06.724Z,96.20
2018-12-14T12:42:35.932Z,95.40
2018-12-14T12:45:05.890Z,95.10
2018-12-14T12:47:35.014Z,95.10
2018-12-14T12:50:04.478Z,95.40
2018-12-14T12:52:33.664Z,95.80
2018-12-14T12:55:02.842Z,96.10
2018-12-14T12:57:32.021Z,96.20
2018-12-14T13:00:01.167Z,96.20
2018-12-14T13:02:30.328Z,96.30
2018-12-14T13:04:59.450Z,96.60
2018-12-14T13:07:28.572Z,96.60
2018-12-14T13:09:57.743Z,96.70
2018-12-14T13:12:26.855Z,96.10
2018-12-14T13:14:56.002Z,95.70
2018-12-14T13:17:25.096Z,95.30
2018-12-14T13:19:54.232Z,95.60
2018-12-14T13:22:23.349Z,95.90
2018-12-14T13:24:52.492Z,95.90
2018-12-14T13:27:21.682Z,95.90
2018-12-14T13:29:50.830Z,95.50
2018-12-14T13:32:19.954Z,95.50
2018-12-14T13:34:49.944Z,95.50
2018-12-14T13:37:19.074Z,95.40
2018-12-14T13:39:48.272Z,95.30
2018-12-14T13:42:17.415Z,95.60
2018-12-14T13:51:34.788Z,95.70
2018-12-14T13:54:03.927Z,95.60
2018-12-14T13:56:34.311Z,95.80
2018-12-14T13:59:03.704Z,96.00
2018-12-14T14:01:32.856Z,96.20
2018-12-14T14:04:02.020Z,96.60
2018-12-14T14:06:31.129Z,96.40
2018-12-14T14:09:00.663Z,96.20
2018-12-14T14:11:30.080Z,96.40
2018-12-14T14:13:59.412Z,96.50
2018-12-14T14:16:28.533Z,96.80
2018-12-14T14:18:57.698Z,96.70
2018-12-14T14:21:26.965Z,96.70
2018-12-14T14:23:56.264Z,96.80
2018-12-14T14:27:54.653Z,96.90
2018-12-14T14:30:24.889Z,97.00
2018-12-14T14:32:54.137Z,97.00
2018-12-14T14:35:23.378Z,97.00
2018-12-14T14:37:57.473Z,97.20
2018-12-14T14:40:24.856Z,97.30
2018-12-14T14:42:54.142Z,97.30
2018-12-14T14:45:23.266Z,97.30
2018-12-14T14:47:52.398Z,97.30
2018-12-14T14:50:21.635Z,97.40
2018-12-14T14:52:50.798Z,97.50
2018-12-14T14:55:20.058Z,97.60
2018-12-14T14:57:49.474Z,97.80
2018-12-14T15:00:18.774Z,97.90
2018-12-14T15:02:47.878Z,97.90
2018-12-14T15:05:17.059Z,97.80
2018-12-14T15:07:46.216Z,97.80
2018-12-14T15:10:15.396Z,97.90
2018-12-14T15:12:44.532Z,97.90
2018-12-14T15:15:13.756Z,98.00
2018-12-14T15:17:42.912Z,98.00
2018-12-14T15:20:12.056Z,98.00
2018-12-14T15:22:41.195Z,98.00
2018-12-14T15:25:10.316Z,98.00
2018-12-14T15:27:39.488Z,98.00
2018-12-14T15:30:09.009Z,97.90
2018-12-14T15:32:38.210Z,98.00
2018-12-14T15:35:07.595Z,98.20
2018-12-14T15:37:36.824Z,98.20
2018-12-14T15:40:08.360Z,98.20
2018-12-14T15:42:37.516Z,98.50
2018-12-14T15:45:12.944Z,98.20
2018-12-14T15:47:38.612Z,98.20
2018-12-14T15:50:08.160Z,98.20
2018-12-14T15:52:37.299Z,98.20
2018-12-14T15:55:06.691Z,97.60
2018-12-14T15:57:35.832Z,97.30
2018-12-14T16:00:05.697Z,97.30
2018-12-14T16:02:34.890Z,97.60
2018-12-14T16:05:04.330Z,97.70
2018-12-14T16:07:33.546Z,97.40
2018-12-14T16:10:02.720Z,97.30
2018-12-14T16:12:32.866Z,97.40
2018-12-14T16:15:02.019Z,97.40
2018-12-14T16:17:32.469Z,97.70
2018-12-14T16:20:01.672Z,97.60
2018-12-14T16:22:31.196Z,97.50
2018-12-14T16:25:00.355Z,97.60
2018-12-14T16:27:29.534Z,98.00
2018-12-14T16:29:58.681Z,97.50
2018-12-14T16:32:28.013Z,97.60
2018-12-14T16:34:57.269Z,97.60
2018-12-14T16:37:26.487Z,97.90
2018-12-14T16:39:55.808Z,97.80
2018-12-14T16:42:25.002Z,97.40
2018-12-14T16:44:54.198Z,97.50
2018-12-14T16:47:23.301Z,97.50
2018-12-14T16:49:52.523Z,97.60
2018-12-14T16:52:21.747Z,97.60
2018-12-14T16:54:51.009Z,97.70
2018-12-14T16:57:20.156Z,97.70
2018-12-14T17:07:20.323Z,97.80
2018-12-14T17:09:49.700Z,97.90
2018-12-14T17:12:18.825Z,97.70
2018-12-14T17:14:47.991Z,97.70
2018-12-14T17:17:17.124Z,97.70
2018-12-14T17:19:46.298Z,97.80
2018-12-14T17:22:15.471Z,97.80
2018-12-14T17:24:44.662Z,97.50
2018-12-14T17:27:13.841Z,97.50
2018-12-14T17:29:43.108Z,97.70
2018-12-14T17:32:12.251Z,97.70
2018-12-14T17:34:41.407Z,97.60
2018-12-14T17:37:12.576Z,97.50
2018-12-14T17:39:42.820Z,97.40
2018-12-14T17:42:13.916Z,97.30
2018-12-14T17:44:43.099Z,97.40
2018-12-14T17:47:12.694Z,97.50
2018-12-14T17:49:41.789Z,97.70
2018-12-14T17:52:10.958Z,97.80
2018-12-14T17:54:40.096Z,97.60
2018-12-14T17:57:09.269Z,97.70
2018-12-14T17:59:38.386Z,97.80
2018-12-14T18:02:07.568Z,97.80
2018-12-14T18:04:37.100Z,97.70
2018-12-14T18:07:06.276Z,97.70
2018-12-14T18:09:35.817Z,97.80
2018-12-14T18:12:05.110Z,97.80
2018-12-14T18:14:34.378Z,97.30
2018-12-14T18:17:03.767Z,97.00
2018-12-14T18:19:33.062Z,97.10
2018-12-14T18:22:02.305Z,97.30
2018-12-14T18:24:31.448Z,97.30
2018-12-14T18:27:00.629Z,97.30
2018-12-14T18:29:29.842Z,97.30
2018-12-14T18:31:59.036Z,97.10
2018-12-14T18:34:28.191Z,97.10
2018-12-14T18:36:58.340Z,97.30
2018-12-14T18:39:27.511Z,97.40
2018-12-14T18:41:56.653Z,97.50
2018-12-14T18:44:25.929Z,97.40
2018-12-14T18:46:55.180Z,97.40
2018-12-14T18:49:24.345Z,97.40
2018-12-14T18:51:53.796Z,97.40
2018-12-14T18:54:23.080Z,96.70
2018-12-14T18:56:52.240Z,96.30
2018-12-14T18:59:21.547Z,96.30
2018-12-14T19:01:50.696Z,96.30
2018-12-14T19:04:19.866Z,96.30
2018-12-14T19:06:49.018Z,96.10
2018-12-14T19:09:18.159Z,96.20
2018-12-14T19:11:47.568Z,96.40
2018-12-14T19:14:16.724Z,96.60
2018-12-14T19:16:45.852Z,96.90
2018-12-14T19:19:14.988Z,96.60
2018-12-14T19:21:44.109Z,96.60
2018-12-14T19:24:13.286Z,96.70
2018-12-14T19:26:42.430Z,96.90
2018-12-14T19:29:12.692Z,96.90
2018-12-14T19:31:41.850Z,96.90
2018-12-14T19:34:10.963Z,96.60
2018-12-14T19:36:40.140Z,96.60
2018-12-14T19:39:09.292Z,96.60
2018-12-14T19:41:40.436Z,97.00
2018-12-14T19:44:10.708Z,96.70
2018-12-14T19:46:39.826Z,96.70
2018-12-14T19:49:09.020Z,96.30
2018-12-14T19:51:38.282Z,96.40
2018-12-14T19:54:07.443Z,95.90
2018-12-14T19:56:37.026Z,96.00
2018-12-14T19:59:06.172Z,96.00
2018-12-14T20:01:35.334Z,96.40
2018-12-14T20:04:04.808Z,96.30
2018-12-14T20:06:34.082Z,96.40
2018-12-14T20:09:04.167Z,96.40
2018-12-14T20:11:34.619Z,96.60
2018-12-14T20:14:04.996Z,96.80
2018-12-14T20:16:34.197Z,96.70
2018-12-14T20:19:03.384Z,96.70
2018-12-14T20:21:32.564Z,96.70
2018-12-14T20:24:01.795Z,96.50
2018-12-14T20:26:31.112Z,96.70
2018-12-14T20:29:00.268Z,96.90
2018-12-14T20:31:29.393Z,97.00
2018-12-14T20:33:58.623Z,97.00
2018-12-14T20:36:27.778Z,96.70
2018-12-14T20:38:56.895Z,96.90
2018-12-14T20:41:26.015Z,96.90
2018-12-14T20:43:55.178Z,97.00
2018-12-14T20:46:24.288Z,97.20
2018-12-14T20:48:53.423Z,97.10
2018-12-14T20:51:22.571Z,96.80
2018-12-14T20:53:51.760Z,96.90
2018-12-14T20:56:20.947Z,96.50
2018-12-14T20:58:50.107Z,96.60
2018-12-14T21:01:19.282Z,96.80
2018-12-14T21:03:48.395Z,96.90
2018-12-14T21:06:17.551Z,96.70
2018-12-14T21:08:46.768Z,96.70
2018-12-14T21:11:15.928Z,96.70
2018-12-14T21:13:45.119Z,97.20
2018-12-14T21:16:14.454Z,96.90
2018-12-14T21:18:43.583Z,96.70
2018-12-14T21:21:12.821Z,96.40
2018-12-14T21:23:41.953Z,96.40
2018-12-14T21:26:11.247Z,96.70
2018-12-14T21:28:40.390Z,96.80
2018-12-14T21:31:09.734Z,96.70
2018-12-14T21:33:38.837Z,96.80
2018-12-14T21:36:08.014Z,96.70
2018-12-14T21:38:37.190Z,96.10
2018-12-14T21:41:06.352Z,96.20
2018-12-14T21:43:35.499Z,96.30
2018-12-14T21:46:04.680Z,96.60
2018-12-14T21:48:33.829Z,96.60
2018-12-14T21:51:02.993Z,96.40
2018-12-14T21:53:32.111Z,96.50
2018-12-14T21:56:01.256Z,96.40
2018-12-14T21:58:30.452Z,96.10
2018-12-14T22:00:59.609Z,95.90
2018-12-14T22:03:29.117Z,95.90
2018-12-14T22:05:58.314Z,96.00
2018-12-14T22:08:27.462Z,96.30
2018-12-14T22:10:56.648Z,96.20
2018-12-14T22:13:25.852Z,96.40
2018-12-14T22:15:54.984Z,96.40
2018-12-14T22:18:24.381Z,96.40
2018-12-14T22:20:53.543Z,96.60
2018-12-14T22:23:22.733Z,96.30
2018-12-14T22:25:51.851Z,96.30
2018-12-14T22:28:20.991Z,96.30
2018-12-14T22:30:50.139Z,96.10
2018-12-14T22:33:19.299Z,96.60
2018-12-14T22:35:48.444Z,96.70
2018-12-14T22:38:17.945Z,96.60
2018-12-14T22:40:47.095Z,96.60
2018-12-14T22:43:16.685Z,96.40
2018-12-14T22:45:45.843Z,96.40
2018-12-14T22:48:15.133Z,96.50
2018-12-14T22:50:44.259Z,96.60
2018-12-14T22:53:13.417Z,96.40
2018-12-14T22:55:42.658Z,96.50
2018-12-14T22:58:11.758Z,96.40
2018-12-14T23:00:46.644Z,96.60
2018-12-14T23:03:15.760Z,96.50
2018-12-14T23:05:44.908Z,96.40
2018-12-14T23:08:14.097Z,96.40
2018-12-14T23:10:44.316Z,96.20
2018-12-14T23:13:13.494Z,96.40
2018-12-14T23:15:43.332Z,96.30
2018-12-14T23:18:12.471Z,96.20
2018-12-14T23:20:41.817Z,96.30
2018-12-14T23:23:11.045Z,96.40
2018-12-14T23:25:40.188Z,96.70
2018-12-14T23:28:09.338Z,96.90
2018-12-14T23:30:38.528Z,97.00
2018-12-14T23:39:55.747Z,97.00
2018-12-14T23:42:24.911Z,97.00
2018-12-14T23:44:54.057Z,97.30
2018-12-14T23:47:23.221Z,97.20
2018-12-14T23:49:52.401Z,97.70
2018-12-14T23:52:21.533Z,97.50
2018-12-14T23:54:50.724Z,97.50
2018-12-14T23:57:19.935Z,97.10
2018-12-14T23:59:49.056Z,97.20
